N747LE KDCA-KMCO
Flight info
| Callsign | N747LE |
|---|---|
| Flight time | N/A |
| Altitude | 43000 |
| Route | JDUBB4 RRSIN GSO Q83 ROYCO Q85 LPERD GTOUT1 |
| Aircraft | C700/M-SBDGHM1RWXY/LB2 |
Departure
| Time | 2026-04-26 12:58 |
|---|---|
| Airport | Ronald Reagan Washington National Airport (KDCA) |
Arrival
| Time | N/A |
|---|---|
| Airport | Orlando International Airport (KMCO) |
| Time | Latitude | Longitude | Altitude | Speed | Heading |
|---|---|---|---|---|---|
| 2026-04-26 12:40 | 38.84552 | -77.04523 | 18 ft | 0 kts | 142° |
| 2026-04-26 12:43 | 38.84552 | -77.04524 | 18 ft | 0 kts | 142° |
| 2026-04-26 12:52 | 38.84553 | -77.04524 | 18 ft | 0 kts | 142° |
| 2026-04-26 12:54 | 38.84544 | -77.04517 | 19 ft | 3 kts | 147° |
| 2026-04-26 12:55 | 38.84541 | -77.04445 | 18 ft | 15 kts | 60° |
| 2026-04-26 12:55 | 38.84569 | -77.04327 | 21 ft | 13 kts | 108° |
| 2026-04-26 12:55 | 38.84568 | -77.04251 | 20 ft | 9 kts | 85° |
| 2026-04-26 12:55 | 38.84564 | -77.04141 | 22 ft | 14 kts | 141° |
| 2026-04-26 12:56 | 38.84468 | -77.04125 | 23 ft | 14 kts | 172° |
| 2026-04-26 12:56 | 38.84381 | -77.04060 | 22 ft | 17 kts | 91° |
| 2026-04-26 12:56 | 38.84386 | -77.03874 | 22 ft | 23 kts | 86° |
| 2026-04-26 12:56 | 38.84298 | -77.03829 | 23 ft | 17 kts | 174° |
| 2026-04-26 12:57 | 38.84234 | -77.03803 | 19 ft | 4 kts | 131° |
| 2026-04-26 12:57 | 38.84222 | -77.03783 | 19 ft | 0 kts | 128° |
| 2026-04-26 12:57 | 38.84213 | -77.03768 | 20 ft | 7 kts | 126° |
| 2026-04-26 12:58 | 38.84471 | -77.03707 | 18 ft | 78 kts | 356° |
| 2026-04-26 12:58 | 38.85302 | -77.03785 | 226 ft | 149 kts | 356° |
| 2026-04-26 12:58 | 38.86375 | -77.03898 | 1477 ft | 160 kts | 356° |
| 2026-04-26 12:58 | 38.87523 | -77.04280 | 2687 ft | 182 kts | 335° |
| 2026-04-26 12:59 | 38.88553 | -77.05428 | 3878 ft | 210 kts | 319° |
| 2026-04-26 12:59 | 38.89649 | -77.06742 | 5385 ft | 221 kts | 317° |
| 2026-04-26 12:59 | 38.90583 | -77.08410 | 6860 ft | 244 kts | 302° |
| 2026-04-26 12:59 | 38.91568 | -77.10304 | 8073 ft | 263 kts | 317° |
| 2026-04-26 13:00 | 38.92958 | -77.11813 | 9822 ft | 262 kts | 331° |
| 2026-04-26 13:00 | 38.94541 | -77.13117 | 11151 ft | 286 kts | 326° |
| 2026-04-26 13:00 | 38.95970 | -77.15048 | 12279 ft | 305 kts | 311° |
| 2026-04-26 13:00 | 38.97005 | -77.17496 | 13436 ft | 322 kts | 296° |
| 2026-04-26 13:01 | 38.97499 | -77.20353 | 14556 ft | 334 kts | 279° |
| 2026-04-26 13:01 | 38.97332 | -77.23368 | 15640 ft | 346 kts | 262° |
| 2026-04-26 13:01 | 38.96449 | -77.26288 | 16770 ft | 357 kts | 244° |
| 2026-04-26 13:01 | 38.94862 | -77.28805 | 17942 ft | 372 kts | 224° |
| 2026-04-26 13:02 | 38.92655 | -77.30612 | 19067 ft | 380 kts | 205° |
| 2026-04-26 13:02 | 38.90202 | -77.31866 | 20179 ft | 380 kts | 201° |
| 2026-04-26 13:02 | 38.87706 | -77.33050 | 21328 ft | 384 kts | 201° |
| 2026-04-26 13:02 | 38.85202 | -77.34263 | 22517 ft | 386 kts | 203° |
| 2026-04-26 13:03 | 38.82697 | -77.35522 | 23745 ft | 387 kts | 204° |
| 2026-04-26 13:03 | 38.80184 | -77.36780 | 24817 ft | 387 kts | 204° |
| 2026-04-26 13:03 | 38.77674 | -77.38012 | 25923 ft | 386 kts | 204° |
| 2026-04-26 13:03 | 38.75174 | -77.39237 | 27072 ft | 383 kts | 204° |
| 2026-04-26 13:04 | 38.72667 | -77.40478 | 27925 ft | 389 kts | 204° |
| 2026-04-26 13:04 | 38.70125 | -77.41737 | 28782 ft | 395 kts | 205° |
| 2026-04-26 13:04 | 38.67545 | -77.43006 | 29669 ft | 399 kts | 205° |
| 2026-04-26 13:04 | 38.64956 | -77.44277 | 30501 ft | 397 kts | 205° |
| 2026-04-26 13:05 | 38.62381 | -77.45539 | 31280 ft | 396 kts | 205° |
| 2026-04-26 13:05 | 38.59805 | -77.46808 | 32084 ft | 397 kts | 205° |
| 2026-04-26 13:05 | 38.57232 | -77.48073 | 32912 ft | 397 kts | 205° |
| 2026-04-26 13:05 | 38.54696 | -77.49314 | 33744 ft | 395 kts | 205° |
| 2026-04-26 13:06 | 38.52103 | -77.50584 | 34559 ft | 392 kts | 205° |
| 2026-04-26 13:06 | 38.49567 | -77.51827 | 35320 ft | 389 kts | 205° |
| 2026-04-26 13:06 | 38.47056 | -77.53055 | 36103 ft | 384 kts | 205° |
| 2026-04-26 13:06 | 38.44578 | -77.54262 | 36898 ft | 378 kts | 205° |
| 2026-04-26 13:07 | 38.42149 | -77.55452 | 37729 ft | 370 kts | 205° |
| 2026-04-26 13:07 | 38.39817 | -77.56719 | 38555 ft | 360 kts | 211° |
| 2026-04-26 13:07 | 38.37708 | -77.58362 | 38906 ft | 360 kts | 218° |
| 2026-04-26 13:07 | 38.35608 | -77.60191 | 39245 ft | 361 kts | 217° |
| 2026-04-26 13:08 | 38.33545 | -77.61947 | 39575 ft | 362 kts | 217° |
| 2026-04-26 13:08 | 38.31416 | -77.63755 | 39911 ft | 363 kts | 217° |
| 2026-04-26 13:08 | 38.29396 | -77.65598 | 40252 ft | 361 kts | 223° |
| 2026-04-26 13:08 | 38.27498 | -77.67676 | 40609 ft | 360 kts | 223° |
| 2026-04-26 13:09 | 38.25580 | -77.69731 | 40966 ft | 360 kts | 222° |
| 2026-04-26 13:09 | 38.23636 | -77.71782 | 41088 ft | 366 kts | 223° |
| 2026-04-26 13:09 | 38.21675 | -77.73884 | 41242 ft | 371 kts | 223° |
| 2026-04-26 13:09 | 38.19693 | -77.76023 | 41395 ft | 376 kts | 223° |
| 2026-04-26 13:10 | 38.17682 | -77.78177 | 41549 ft | 381 kts | 223° |
| 2026-04-26 13:10 | 38.15640 | -77.80352 | 41705 ft | 385 kts | 223° |
| 2026-04-26 13:10 | 38.13578 | -77.82553 | 41871 ft | 389 kts | 223° |
| 2026-04-26 13:10 | 38.11496 | -77.84780 | 42036 ft | 393 kts | 223° |
| 2026-04-26 13:11 | 38.09393 | -77.87025 | 42193 ft | 397 kts | 223° |
| 2026-04-26 13:11 | 38.07269 | -77.89287 | 42357 ft | 400 kts | 223° |
| 2026-04-26 13:11 | 38.05127 | -77.91569 | 42519 ft | 404 kts | 223° |
| 2026-04-26 13:11 | 38.02967 | -77.93869 | 42674 ft | 407 kts | 223° |
| 2026-04-26 13:12 | 38.00793 | -77.96181 | 42828 ft | 410 kts | 223° |
| 2026-04-26 13:12 | 37.98597 | -77.98514 | 42996 ft | 413 kts | 223° |
| 2026-04-26 13:12 | 37.94154 | -78.03230 | 43091 ft | 423 kts | 223° |
| 2026-04-26 13:13 | 37.89583 | -78.08073 | 43097 ft | 434 kts | 222° |
| 2026-04-26 13:13 | 37.84888 | -78.13038 | 43085 ft | 445 kts | 222° |
| 2026-04-26 13:14 | 37.80081 | -78.18114 | 43089 ft | 455 kts | 222° |
| 2026-04-26 13:14 | 37.75169 | -78.23292 | 43085 ft | 463 kts | 222° |
| 2026-04-26 13:15 | 37.70229 | -78.28487 | 43081 ft | 460 kts | 222° |
| 2026-04-26 13:15 | 37.66155 | -78.32768 | 43079 ft | 457 kts | 222° |
| 2026-04-26 13:16 | 37.60441 | -78.38761 | 43076 ft | 458 kts | 222° |
| 2026-04-26 13:16 | 37.56360 | -78.43031 | 43080 ft | 459 kts | 222° |
| 2026-04-26 13:17 | 37.48965 | -78.50757 | 43085 ft | 460 kts | 222° |
| 2026-04-26 13:18 | 37.41559 | -78.58432 | 43082 ft | 459 kts | 221° |
| 2026-04-26 13:19 | 37.34157 | -78.66062 | 43082 ft | 458 kts | 222° |
| 2026-04-26 13:19 | 37.29238 | -78.71121 | 43073 ft | 458 kts | 222° |
| 2026-04-26 13:20 | 37.24303 | -78.76194 | 43047 ft | 459 kts | 222° |
| 2026-04-26 13:20 | 37.19345 | -78.81273 | 43051 ft | 461 kts | 222° |
| 2026-04-26 13:21 | 37.14382 | -78.86352 | 43044 ft | 459 kts | 222° |
| 2026-04-26 13:21 | 37.09438 | -78.91406 | 43036 ft | 458 kts | 222° |
| 2026-04-26 13:22 | 37.04506 | -78.96447 | 43034 ft | 457 kts | 222° |
| 2026-04-26 13:22 | 36.99576 | -79.01456 | 43031 ft | 456 kts | 222° |
| 2026-04-26 13:23 | 36.94663 | -79.06453 | 43038 ft | 455 kts | 222° |
| 2026-04-26 13:23 | 36.89743 | -79.11514 | 43037 ft | 462 kts | 223° |
| 2026-04-26 13:24 | 36.84774 | -79.16605 | 43048 ft | 460 kts | 223° |
| 2026-04-26 13:24 | 36.79842 | -79.21652 | 43049 ft | 457 kts | 223° |